Time;durP1;ratioP1;P1;durP2;ratioP2;P2;SDS_P1;SDS_P2;PMS_P1;PMS_P2;Temp;Humidity;BMP_temperature;BMP_pressure;BME280_temperature;BME280_humidity;BME280_pressure;Samples;Min_cycle;Max_cycle;Signal;HPM_P1;HPM_P2
2023/06/25 00:02:19;;;;;;;9.13;5.85;;;;;;;17.92;83.53;101103.72;5025715;28;20040;-81
2023/06/25 00:05:23;;;;;;;9.38;6.43;;;;;;;17.79;84.01;101096.69;5023194;28;20052;-82
2023/06/25 00:08:27;;;;;;;7.78;6.13;;;;;;;17.77;84.16;101101.25;5015333;28;20092;-81
2023/06/25 00:11:34;;;;;;;6.20;5.57;;;;;;;17.83;83.85;101095.47;5015152;28;20516;-81
2023/06/25 00:14:37;;;;;;;8.60;5.78;;;;;;;17.88;83.86;101089.88;5015188;28;20048;-82
2023/06/25 00:17:41;;;;;;;8.45;6.20;;;;;;;17.86;83.76;101094.41;5015089;28;20040;-82
2023/06/25 00:20:46;;;;;;;6.55;5.70;;;;;;;17.73;84.13;101089.16;5015081;28;20041;-81
2023/06/25 00:23:49;;;;;;;7.55;6.22;;;;;;;17.73;84.35;101083.88;5014957;28;20104;-81
2023/06/25 00:26:52;;;;;;;7.93;6.35;;;;;;;17.58;85.25;101084.97;5015192;28;20403;-82
2023/06/25 00:30:00;;;;;;;8.18;6.50;;;;;;;17.56;85.09;101077.16;5014136;28;20502;-83
2023/06/25 00:33:03;;;;;;;7.05;6.25;;;;;;;17.58;84.78;101079.69;5002386;28;20081;-84
2023/06/25 00:36:06;;;;;;;8.25;6.18;;;;;;;17.50;84.44;101076.78;5013701;28;20080;-83
2023/06/25 00:39:09;;;;;;;9.68;6.10;;;;;;;17.59;84.98;101081.41;5013962;28;20044;-83
2023/06/25 00:42:15;;;;;;;8.18;5.82;;;;;;;17.53;84.49;101079.19;5002529;28;20052;-83
2023/06/25 00:45:19;;;;;;;7.13;6.00;;;;;;;17.41;84.70;101076.47;5002312;28;20100;-83
2023/06/25 00:48:23;;;;;;;7.78;6.47;;;;;;;17.41;85.10;101078.28;5014435;28;20127;-83
2023/06/25 00:51:27;;;;;;;7.53;5.55;;;;;;;17.50;84.87;101071.50;5014744;28;20150;-82
2023/06/25 00:54:30;;;;;;;7.97;6.57;;;;;;;17.42;84.96;101074.66;5002407;28;20088;-82
2023/06/25 00:57:37;;;;;;;9.85;5.65;;;;;;;17.37;85.10;101071.53;5002350;28;20533;-83
2023/06/25 01:00:40;;;;;;;8.05;6.07;;;;;;;17.31;84.94;101078.09;5014583;28;20130;-82
2023/06/25 01:03:54;;;;;;;10.45;6.05;;;;;;;17.31;84.83;101066.69;5014205;28;20096;-82
2023/06/25 01:07:02;;;;;;;8.02;5.72;;;;;;;17.37;84.60;101066.25;5013108;28;20049;-83
2023/06/25 01:10:07;;;;;;;12.23;6.63;;;;;;;17.29;84.83;101064.13;5001830;28;20506;-83
2023/06/25 01:13:10;;;;;;;8.73;6.10;;;;;;;17.27;84.66;101063.41;5013885;28;20101;-83
2023/06/25 01:16:13;;;;;;;6.43;5.63;;;;;;;17.18;85.47;101070.19;5014081;28;20116;-83
2023/06/25 01:19:17;;;;;;;7.57;6.20;;;;;;;17.12;85.48;101069.78;5001766;28;20053;-83
2023/06/25 01:22:30;;;;;;;10.00;5.95;;;;;;;17.06;85.74;101063.13;5014121;28;20075;-82
2023/06/25 01:25:38;;;;;;;10.35;5.97;;;;;;;17.07;85.69;101063.97;5013520;28;20222;-83
2023/06/25 01:28:41;;;;;;;9.05;6.03;;;;;;;17.02;85.84;101064.31;5012565;28;20519;-83
2023/06/25 01:31:44;;;;;;;10.18;5.72;;;;;;;16.97;85.98;101063.78;5012731;28;20044;-82
2023/06/25 01:34:47;;;;;;;6.38;5.72;;;;;;;16.96;86.05;101062.09;5013005;28;20052;-83
2023/06/25 01:37:51;;;;;;;9.55;6.40;;;;;;;16.94;86.18;101070.16;5011019;28;20053;-83
2023/06/25 01:40:55;;;;;;;10.63;5.93;;;;;;;16.87;86.42;101073.31;5012118;28;20124;-83
2023/06/25 01:43:58;;;;;;;9.57;6.10;;;;;;;16.80;86.40;101062.34;5001085;28;20041;-83
2023/06/25 01:47:02;;;;;;;11.07;5.53;;;;;;;16.70;86.57;101061.25;5013298;28;20065;-82
2023/06/25 01:50:08;;;;;;;10.15;6.63;;;;;;;16.67;86.39;101054.41;5013301;28;20100;-83
2023/06/25 01:53:12;;;;;;;7.45;5.65;;;;;;;16.70;86.40;101059.47;5012792;28;20124;-82
2023/06/25 01:56:15;;;;;;;6.57;5.90;;;;;;;16.73;86.06;101055.78;5012856;28;20124;-83
2023/06/25 01:59:19;;;;;;;9.77;5.55;;;;;;;16.72;85.92;101046.16;5001177;28;20080;-82
2023/06/25 02:02:24;;;;;;;7.35;5.82;;;;;;;16.71;85.93;101047.09;4989604;28;20041;-82
2023/06/25 02:05:26;;;;;;;7.00;6.28;;;;;;;16.58;86.30;101049.75;5011994;28;20052;-82
2023/06/25 02:08:30;;;;;;;6.60;6.00;;;;;;;16.59;86.18;101053.22;5000024;28;20044;-85
2023/06/25 02:11:35;;;;;;;7.28;5.88;;;;;;;16.70;85.96;101048.91;5011836;28;20375;-82
2023/06/25 02:14:38;;;;;;;6.40;5.18;;;;;;;16.66;85.51;101044.78;5012972;28;20053;-82
2023/06/25 02:17:42;;;;;;;9.77;5.88;;;;;;;16.59;85.74;101045.31;5000961;28;20044;-83
2023/06/25 02:20:45;;;;;;;9.32;6.18;;;;;;;16.47;86.08;101044.38;5012728;28;20691;-84
2023/06/25 02:23:48;;;;;;;9.38;5.85;;;;;;;16.57;85.93;101039.31;5012947;28;20069;-84
2023/06/25 02:26:52;;;;;;;7.38;6.22;;;;;;;16.51;85.54;101038.78;5012782;28;20153;-83
2023/06/25 02:29:57;;;;;;;8.18;6.20;;;;;;;16.49;85.72;101038.03;5012836;28;20048;-83
2023/06/25 02:33:00;;;;;;;9.55;5.35;;;;;;;16.46;85.48;101038.25;4994437;28;20085;-83
2023/06/25 02:36:03;;;;;;;8.50;6.07;;;;;;;16.39;85.78;101041.41;4992865;28;20054;-83
2023/06/25 02:39:09;;;;;;;9.00;6.20;;;;;;;16.36;85.74;101041.63;4981159;28;20100;-83
2023/06/25 02:42:13;;;;;;;7.07;5.50;;;;;;;16.49;84.98;101039.81;4979939;28;20220;-84
2023/06/25 02:45:16;;;;;;;9.20;5.93;;;;;;;16.46;84.82;101042.66;4980985;28;20048;-84
2023/06/25 02:48:19;;;;;;;7.63;5.78;;;;;;;16.34;85.28;101031.19;4992814;28;20125;-82
2023/06/25 02:51:24;;;;;;;6.88;5.93;;;;;;;16.18;85.92;101033.16;4980758;28;20108;-82
2023/06/25 02:54:27;;;;;;;8.10;6.03;;;;;;;16.17;86.44;101036.75;4992938;28;20443;-83
2023/06/25 02:57:30;;;;;;;6.32;5.60;;;;;;;16.31;86.07;101036.66;4992992;28;20256;-82
2023/06/25 03:00:34;;;;;;;9.18;5.78;;;;;;;16.27;85.46;101041.31;4979769;28;20122;-83
2023/06/25 03:03:37;;;;;;;7.50;6.00;;;;;;;16.27;85.69;101033.41;4980618;28;20057;-83
2023/06/25 03:06:40;;;;;;;7.68;6.18;;;;;;;16.24;85.26;101030.09;4992449;28;20101;-84
2023/06/25 03:09:46;;;;;;;10.60;6.60;;;;;;;16.17;85.51;101026.19;4969541;28;20049;-84
2023/06/25 03:12:50;;;;;;;7.93;6.03;;;;;;;16.15;85.70;101023.66;4980055;28;20073;-84
2023/06/25 03:15:56;;;;;;;9.15;6.13;;;;;;;16.11;85.57;101022.16;4969407;28;20519;-83
2023/06/25 03:19:00;;;;;;;8.40;6.00;;;;;;;16.03;85.79;101035.88;4980640;28;20475;-84
2023/06/25 03:22:04;;;;;;;9.40;5.80;;;;;;;15.98;86.32;101039.75;4992406;28;20042;-84
2023/06/25 03:25:10;;;;;;;13.02;6.43;;;;;;;16.06;86.53;101031.34;4980400;28;20065;-83
2023/06/25 03:28:17;;;;;;;8.30;6.22;;;;;;;16.12;85.61;101033.59;4979693;28;20053;-83
2023/06/25 03:31:21;;;;;;;6.60;5.68;;;;;;;16.06;85.56;101034.00;4994421;28;20056;-83
2023/06/25 03:34:28;;;;;;;8.63;5.55;;;;;;;15.97;85.81;101035.44;4983787;28;20085;-84
2023/06/25 03:37:32;;;;;;;7.07;5.85;;;;;;;15.98;86.22;101043.25;4983721;28;20068;-83
2023/06/25 03:40:38;;;;;;;9.68;5.25;;;;;;;15.91;86.17;101034.06;4996191;28;20494;-83
2023/06/25 03:43:41;;;;;;;9.90;6.00;;;;;;;15.92;86.17;101030.50;4996261;28;20534;-84
2023/06/25 03:46:46;;;;;;;7.82;6.80;;;;;;;15.83;86.28;101028.47;4983604;28;20624;-83
2023/06/25 03:49:50;;;;;;;9.00;5.50;;;;;;;15.90;86.32;101027.09;4983950;28;20105;-83
2023/06/25 03:52:54;;;;;;;8.90;6.50;;;;;;;15.97;86.12;101017.81;4995880;28;20409;-83
2023/06/25 03:56:13;;;;;;;9.32;6.53;;;;;;;15.85;86.26;101029.19;4985909;28;20412;-83
2023/06/25 03:59:17;;;;;;;10.10;5.80;;;;;;;15.83;86.50;101032.91;4984117;28;20053;-83
2023/06/25 04:02:21;;;;;;;6.25;5.20;;;;;;;15.92;86.42;101029.63;4995826;28;20174;-84
2023/06/25 04:05:24;;;;;;;15.98;7.60;;;;;;;15.88;86.04;101026.34;4971823;28;20118;-83
2023/06/25 04:08:56;;;;;;;10.30;6.13;;;;;;;15.86;86.51;101030.91;4972426;28;20064;-83
2023/06/25 04:11:59;;;;;;;8.57;5.60;;;;;;;15.77;86.71;101028.88;4982809;28;20118;-83
2023/06/25 04:15:03;;;;;;;6.82;6.07;;;;;;;15.73;86.88;101022.94;4972218;28;20600;-82
2023/06/25 04:18:07;;;;;;;6.22;5.63;;;;;;;15.73;86.91;101024.72;4983424;28;20042;-83
2023/06/25 04:21:11;;;;;;;6.22;5.63;;;;;;;15.78;86.90;101025.28;4995512;28;20518;-83
2023/06/25 04:24:14;;;;;;;7.88;5.45;;;;;;;15.83;86.81;101023.19;4995444;28;20412;-82
2023/06/25 04:27:19;;;;;;;9.38;5.43;;;;;;;15.90;86.26;101024.47;4995603;28;20053;-82
2023/06/25 04:30:23;;;;;;;10.38;5.72;;;;;;;15.85;86.59;101028.34;4995443;28;20108;-82
2023/06/25 04:33:27;;;;;;;6.95;5.80;;;;;;;15.90;86.62;101021.81;4991418;28;20045;-82
2023/06/25 04:36:30;;;;;;;7.97;5.80;;;;;;;15.86;86.56;101025.63;5001802;28;20172;-82
2023/06/25 04:39:35;;;;;;;7.20;5.78;;;;;;;15.86;87.24;101022.97;5001443;28;20140;-82
2023/06/25 04:42:38;;;;;;;11.07;6.32;;;;;;;15.96;86.65;101016.16;5000900;28;20145;-82
2023/06/25 04:45:42;;;;;;;6.70;5.55;;;;;;;15.91;86.65;101025.31;5002320;28;20101;-82
2023/06/25 04:48:46;;;;;;;7.97;6.38;;;;;;;15.95;86.80;101016.22;5012716;28;20072;-83
2023/06/25 04:51:49;;;;;;;12.65;5.90;;;;;;;16.15;85.96;101020.19;5013522;28;20048;-83
2023/06/25 04:54:52;;;;;;;8.82;5.78;;;;;;;16.08;85.44;101018.88;5014137;28;20571;-83
2023/06/25 04:57:56;;;;;;;7.13;5.82;;;;;;;16.08;85.37;101022.41;5014212;28;20121;-83
2023/06/25 05:01:00;;;;;;;7.90;5.85;;;;;;;16.10;85.00;101022.28;5014058;28;20087;-83
2023/06/25 05:04:04;;;;;;;7.13;5.78;;;;;;;16.33;83.82;101016.28;5014397;28;20108;-83
2023/06/25 05:07:08;;;;;;;12.63;6.13;;;;;;;16.37;83.30;101020.41;5014244;28;20575;-84
2023/06/25 05:10:48;;;;;;;11.32;5.82;;;;;;;16.39;83.35;101021.13;5004343;28;20099;-84
2023/06/25 05:13:53;;;;;;;13.30;6.93;;;;;;;16.45;83.48;101018.06;5014236;28;20096;-84
2023/06/25 05:16:56;;;;;;;8.60;5.97;;;;;;;16.56;83.71;101013.84;5001673;28;20073;-83
2023/06/25 05:19:59;;;;;;;9.25;6.40;;;;;;;16.66;83.74;101012.28;5000267;28;20084;-84
2023/06/25 05:23:04;;;;;;;10.38;5.97;;;;;;;16.64;83.91;101020.28;5013127;28;20514;-84
2023/06/25 05:26:07;;;;;;;8.25;5.93;;;;;;;16.74;83.80;101025.75;5000471;28;20069;-84
2023/06/25 05:29:11;;;;;;;9.98;5.65;;;;;;;16.89;83.28;101024.72;5012246;28;20104;-84
2023/06/25 05:32:16;;;;;;;6.70;6.00;;;;;;;16.98;83.74;101027.69;5013132;28;20108;-84
2023/06/25 05:35:19;;;;;;;7.47;5.90;;;;;;;17.09;83.46;101017.16;5014021;28;20103;-72
2023/06/25 05:38:23;;;;;;;9.20;6.13;;;;;;;17.15;83.49;101016.72;5012223;28;20100;-71
2023/06/25 05:41:26;;;;;;;7.05;5.93;;;;;;;17.20;83.38;101022.53;5013528;28;20506;-72
2023/06/25 05:44:30;;;;;;;8.93;6.03;;;;;;;17.37;82.81;101016.88;5012110;28;20164;-73
2023/06/25 05:47:33;;;;;;;7.35;6.03;;;;;;;17.49;83.14;101022.22;5010828;28;20139;-72
2023/06/25 05:50:36;;;;;;;6.95;5.45;;;;;;;17.56;83.12;101015.53;5012553;28;20088;-72
2023/06/25 05:53:43;;;;;;;7.68;5.90;;;;;;;17.65;82.83;101014.84;5011571;28;20044;-72
2023/06/25 05:56:46;;;;;;;7.18;6.05;;;;;;;17.66;83.58;101009.41;5011852;28;20107;-71
2023/06/25 05:59:50;;;;;;;6.90;6.10;;;;;;;17.74;83.49;101011.50;5012314;28;20040;-72
2023/06/25 06:02:54;;;;;;;7.15;5.80;;;;;;;17.88;83.99;101010.50;5012358;28;20526;-71
2023/06/25 06:05:58;;;;;;;9.23;5.68;;;;;;;18.00;83.48;101012.22;5013089;28;20112;-71
2023/06/25 06:09:01;;;;;;;7.68;6.10;;;;;;;18.15;82.21;101014.66;5012645;28;20047;-72
2023/06/25 06:12:05;;;;;;;6.75;5.60;;;;;;;18.23;81.80;100999.88;5012324;28;20155;-72
2023/06/25 06:15:12;;;;;;;9.13;5.95;;;;;;;18.35;81.44;101000.75;5013159;28;20052;-72
2023/06/25 06:18:16;;;;;;;9.88;6.18;;;;;;;18.35;81.78;101001.59;5012073;28;20080;-72
2023/06/25 06:21:19;;;;;;;10.75;6.20;;;;;;;18.49;81.51;101002.31;5011739;28;20131;-72
2023/06/25 06:24:23;;;;;;;7.20;6.00;;;;;;;18.54;81.42;100997.50;5012257;28;20048;-72
2023/06/25 06:27:26;;;;;;;7.82;6.10;;;;;;;18.61;81.36;100997.88;4999380;28;20143;-71
2023/06/25 06:30:29;;;;;;;11.07;6.72;;;;;;;18.70;82.15;101000.63;5010662;28;20124;-72
2023/06/25 06:33:33;;;;;;;9.68;5.95;;;;;;;18.79;81.60;100994.66;5012601;28;20128;-79
2023/06/25 06:36:39;;;;;;;7.00;5.72;;;;;;;18.90;81.52;100991.13;5012848;28;20048;-82
2023/06/25 06:39:43;;;;;;;6.68;5.97;;;;;;;19.01;81.25;100992.91;5012709;28;20049;-80
2023/06/25 06:43:12;;;;;;;7.47;6.28;;;;;;;19.14;80.29;100987.47;5010190;28;20069;-91
2023/06/25 06:46:20;;;;;;;7.70;6.00;;;;;;;19.16;79.02;100991.69;5011954;28;20045;-78
2023/06/25 06:49:49;;;;;;;8.40;6.07;;;;;;;19.27;78.50;100994.31;5000330;28;20048;-88
2023/06/25 06:53:20;;;;;;;9.95;5.93;;;;;;;19.39;78.66;100983.66;4932959;29;20164;-80
2023/06/25 06:56:25;;;;;;;8.88;6.32;;;;;;;19.48;78.19;100980.25;4951885;28;20511;-82
2023/06/25 06:59:32;;;;;;;7.03;5.57;;;;;;;19.56;77.58;100975.16;4999961;28;20072;-82
2023/06/25 07:02:35;;;;;;;9.27;6.07;;;;;;;19.67;77.36;100974.31;5012146;28;20103;-82
2023/06/25 07:05:40;;;;;;;7.40;6.10;;;;;;;19.72;76.11;100980.91;5011533;28;20100;-83
2023/06/25 07:08:43;;;;;;;11.98;6.45;;;;;;;19.82;76.76;100977.50;5012346;28;20076;-83
2023/06/25 07:11:54;;;;;;;9.32;5.95;;;;;;;19.91;76.26;100972.25;5011881;28;20509;-84
2023/06/25 07:14:59;;;;;;;8.00;6.15;;;;;;;20.02;75.66;100973.97;5012322;28;20056;-84
2023/06/25 07:18:08;;;;;;;6.88;5.63;;;;;;;20.10;75.25;100960.03;5012135;28;20450;-82
2023/06/25 07:21:17;;;;;;;8.18;5.80;;;;;;;20.15;74.54;100969.31;5000522;28;20563;-84
2023/06/25 07:24:31;;;;;;;8.07;5.80;;;;;;;20.37;74.03;100970.13;5012307;28;20056;-85
2023/06/25 07:27:35;;;;;;;8.10;6.15;;;;;;;20.46;72.93;100974.63;5012348;28;20126;-82
2023/06/25 07:30:39;;;;;;;23.40;5.90;;;;;;;20.49;71.88;100974.38;5011705;28;20064;-88
2023/06/25 07:33:46;;;;;;;6.90;5.60;;;;;;;20.52;71.72;100968.84;5011581;28;20077;-83
2023/06/25 07:41:21;;;;;;;7.47;5.43;;;;;;;20.91;67.40;100958.31;5002850;28;20045;-83
2023/06/25 07:44:25;;;;;;;10.15;5.07;;;;;;;20.92;68.54;100957.31;5011659;28;20068;-82
2023/06/25 07:47:35;;;;;;;10.38;5.55;;;;;;;21.04;65.67;100950.91;5027231;28;20048;-82
2023/06/25 07:50:39;;;;;;;6.72;5.00;;;;;;;21.04;65.75;100956.25;5030426;28;20367;-83
2023/06/25 07:53:43;;;;;;;8.15;5.18;;;;;;;21.23;66.20;100947.44;5031422;28;20040;-83
2023/06/25 07:56:46;;;;;;;6.43;5.18;;;;;;;21.25;65.79;100948.16;5019880;28;20049;-81
2023/06/25 07:59:50;;;;;;;8.52;4.88;;;;;;;21.32;66.57;100943.13;5004805;28;20051;-81
2023/06/25 08:02:57;;;;;;;7.25;5.53;;;;;;;21.49;65.72;100945.09;5012034;28;20152;-84
2023/06/25 08:06:04;;;;;;;6.03;5.18;;;;;;;21.51;64.39;100942.31;5012982;28;20405;-83
2023/06/25 08:09:35;;;;;;;5.30;4.53;;;;;;;21.57;64.83;100937.25;5022278;28;20587;-86
2023/06/25 08:12:44;;;;;;;7.82;5.15;;;;;;;21.77;64.67;100940.72;5018169;28;20049;-91
2023/06/25 08:15:47;;;;;;;6.38;5.50;;;;;;;21.76;64.62;100936.41;5019223;28;20072;-77
2023/06/25 08:18:51;;;;;;;6.60;4.78;;;;;;;21.91;64.03;100939.44;5001611;28;20079;-85
2023/06/25 08:22:00;;;;;;;8.73;5.10;;;;;;;21.97;64.24;100935.38;5015055;28;20097;-87
2023/06/25 08:25:19;;;;;;;7.03;4.95;;;;;;;22.04;63.99;100931.13;5014827;28;20096;-74
2023/06/25 08:31:56;;;;;;;9.50;5.13;;;;;;;22.52;62.92;100922.97;4989440;28;20049;-83
2023/06/25 08:35:24;;;;;;;8.00;4.75;;;;;;;22.57;62.42;100919.06;4995560;28;20048;-85
2023/06/25 08:38:30;;;;;;;8.45;5.00;;;;;;;22.68;61.82;100921.50;4994127;28;20829;-84
2023/06/25 08:41:46;;;;;;;7.32;5.43;;;;;;;22.77;61.77;100920.59;4993373;28;20091;-85
2023/06/25 08:44:49;;;;;;;7.53;4.80;;;;;;;22.81;62.19;100911.31;4994028;28;20041;-79
2023/06/25 08:48:02;;;;;;;7.18;4.35;;;;;;;23.09;60.74;100919.31;4994969;28;20061;-76
2023/06/25 08:51:15;;;;;;;5.63;4.43;;;;;;;23.05;61.58;100902.75;4993851;28;20396;-76
2023/06/25 08:54:19;;;;;;;6.95;4.38;;;;;;;23.43;59.71;100900.78;4980876;28;20390;-76
2023/06/25 08:57:22;;;;;;;8.05;4.80;;;;;;;23.52;58.38;100893.66;4994094;28;20105;-78
2023/06/25 09:00:26;;;;;;;9.15;4.60;;;;;;;23.72;59.97;100895.16;4994121;28;20148;-72
2023/06/25 09:03:29;;;;;;;7.40;4.85;;;;;;;23.88;57.41;100884.59;4994225;28;20057;-80
2023/06/25 09:06:39;;;;;;;9.45;5.82;;;;;;;23.97;58.09;100879.31;4994330;28;20506;-71
2023/06/25 09:09:43;;;;;;;18.48;8.52;;;;;;;24.08;56.25;100877.19;4994274;28;20092;-72
2023/06/25 09:12:48;;;;;;;16.10;8.00;;;;;;;24.10;56.82;100867.19;4993636;28;20077;-72
2023/06/25 09:15:59;;;;;;;9.23;5.78;;;;;;;24.11;56.53;100873.34;4993703;28;20057;-74
2023/06/25 09:19:02;;;;;;;11.40;6.30;;;;;;;24.10;56.42;100861.00;4993801;28;20084;-71
2023/06/25 09:22:06;;;;;;;5.55;4.43;;;;;;;24.39;54.06;100849.09;4993913;28;20073;-76
2023/06/25 09:25:09;;;;;;;5.97;3.80;;;;;;;24.57;52.61;100857.88;4993411;28;20077;-77
2023/06/25 09:28:13;;;;;;;6.18;4.15;;;;;;;24.56;51.86;100856.19;4992780;28;20544;-77
2023/06/25 09:31:17;;;;;;;6.07;4.13;;;;;;;24.94;50.31;100849.38;4985862;28;20416;-76
2023/06/25 09:34:23;;;;;;;5.15;4.30;;;;;;;24.86;53.22;100846.72;4985244;28;20076;-77
2023/06/25 09:37:26;;;;;;;8.55;4.05;;;;;;;24.94;50.30;100837.84;4988844;28;20109;-72
2023/06/25 09:40:30;;;;;;;4.78;3.80;;;;;;;25.21;47.70;100840.25;4989163;28;20064;-72
2023/06/25 09:43:33;;;;;;;7.15;3.80;;;;;;;25.01;46.50;100830.84;4988115;28;20126;-72
2023/06/25 09:46:39;;;;;;;6.40;3.70;;;;;;;24.85;46.51;100828.16;4984718;28;20045;-83
2023/06/25 09:49:43;;;;;;;5.38;3.70;;;;;;;24.85;47.60;100830.81;4962728;28;20093;-84
2023/06/25 09:52:56;;;;;;;5.32;3.70;;;;;;;25.06;46.86;100828.50;4974264;28;20054;-83
2023/06/25 09:56:03;;;;;;;7.40;3.50;;;;;;;25.31;47.30;100825.84;4971107;28;20427;-83
2023/06/25 09:59:08;;;;;;;6.30;3.90;;;;;;;25.63;45.23;100815.09;4962396;28;20448;-83
2023/06/25 10:02:14;;;;;;;4.75;3.63;;;;;;;25.62;46.83;100818.78;4974427;28;20041;-83
2023/06/25 10:05:18;;;;;;;3.97;3.58;;;;;;;25.64;46.33;100818.59;4974729;28;20054;-83
2023/06/25 10:08:22;;;;;;;7.03;3.47;;;;;;;25.47;43.01;100809.78;4962621;28;20057;-83
2023/06/25 10:11:37;;;;;;;5.40;3.90;;;;;;;25.47;42.81;100807.09;4974674;28;20069;-84
2023/06/25 10:14:52;;;;;;;7.78;3.53;;;;;;;25.42;43.26;100799.56;4974285;28;20057;-83
2023/06/25 10:18:04;;;;;;;6.38;3.70;;;;;;;25.48;40.26;100798.88;4973959;28;20045;-84
2023/06/25 10:21:16;;;;;;;6.50;3.78;;;;;;;25.48;39.70;100795.38;4973809;28;20046;-82
2023/06/25 10:24:20;;;;;;;11.00;3.40;;;;;;;25.40;41.91;100798.91;4974079;28;20523;-83
2023/06/25 10:27:26;;;;;;;6.80;3.47;;;;;;;25.55;40.66;100787.50;4973946;28;20049;-84
2023/06/25 10:30:40;;;;;;;7.03;3.50;;;;;;;25.78;40.13;100782.22;4973266;28;20494;-84
2023/06/25 10:33:43;;;;;;;4.47;3.40;;;;;;;25.78;39.05;100776.84;4973471;28;20049;-80
2023/06/25 10:36:53;;;;;;;4.70;3.67;;;;;;;25.71;40.55;100777.56;4973913;28;20073;-80
2023/06/25 10:40:10;;;;;;;4.22;3.40;;;;;;;25.78;40.46;100766.97;4973131;28;20417;-83
2023/06/25 10:43:22;;;;;;;4.15;3.50;;;;;;;25.96;40.61;100767.59;4987282;28;20065;-86
2023/06/25 10:46:32;;;;;;;4.00;3.03;;;;;;;25.82;41.35;100771.03;4992824;28;20514;-78
2023/06/25 10:49:36;;;;;;;6.47;3.70;;;;;;;25.86;41.03;100763.47;4993233;28;20045;-78
2023/06/25 10:52:41;;;;;;;9.68;4.93;;;;;;;26.25;41.11;100773.31;4992849;28;20041;-78
2023/06/25 10:55:53;;;;;;;8.30;4.15;;;;;;;25.93;41.06;100759.09;4992925;28;20416;-77
2023/06/25 10:58:59;;;;;;;3.88;3.03;;;;;;;26.31;38.23;100762.72;4993056;28;20432;-75
2023/06/25 11:02:17;;;;;;;5.57;3.83;;;;;;;26.27;38.79;100757.91;4993430;28;20044;-76
2023/06/25 11:05:30;;;;;;;4.78;3.95;;;;;;;26.32;40.16;100758.19;4992669;28;20065;-77
2023/06/25 11:08:34;;;;;;;6.75;3.58;;;;;;;26.52;37.64;100753.25;4992761;28;20193;-76
2023/06/25 11:11:37;;;;;;;4.05;3.28;;;;;;;26.67;37.88;100752.31;4992775;28;20037;-76
2023/06/25 11:14:41;;;;;;;5.65;3.53;;;;;;;26.90;40.73;100740.72;4992665;28;20414;-77
2023/06/25 11:17:45;;;;;;;4.32;3.15;;;;;;;26.93;37.71;100743.03;4991715;28;20546;-77
2023/06/25 11:20:49;;;;;;;5.13;3.70;;;;;;;26.81;37.32;100736.44;4992671;28;20510;-77
2023/06/25 11:23:54;;;;;;;4.57;3.58;;;;;;;26.59;38.39;100733.59;4992527;28;20463;-76
2023/06/25 11:26:58;;;;;;;5.13;3.58;;;;;;;26.38;39.05;100741.41;4992715;28;20041;-77
2023/06/25 11:30:07;;;;;;;7.20;4.00;;;;;;;26.32;38.94;100720.66;4992533;28;20411;-75
2023/06/25 11:33:19;;;;;;;4.43;3.35;;;;;;;26.48;40.61;100725.94;4992792;28;20116;-76
2023/06/25 11:36:24;;;;;;;4.25;3.67;;;;;;;26.86;40.28;100724.13;4992776;28;20072;-74
2023/06/25 11:39:30;;;;;;;4.75;3.30;;;;;;;27.24;38.91;100715.22;4992692;28;20045;-77
2023/06/25 11:42:40;;;;;;;4.70;3.78;;;;;;;27.53;38.08;100699.09;4992440;28;20420;-74
2023/06/25 11:45:43;;;;;;;7.35;4.43;;;;;;;27.28;39.68;100705.78;4991792;28;20077;-78
2023/06/25 11:48:48;;;;;;;4.82;4.00;;;;;;;27.29;38.17;100708.28;4980484;28;20423;-78
2023/06/25 11:51:53;;;;;;;6.50;4.32;;;;;;;27.32;38.98;100702.56;4993743;28;20050;-78
2023/06/25 11:54:58;;;;;;;11.82;3.95;;;;;;;27.41;39.15;100699.75;4993084;28;20049;-78
2023/06/25 11:58:05;;;;;;;4.65;3.53;;;;;;;27.22;38.40;100701.16;4996381;28;20053;-77
2023/06/25 12:01:10;;;;;;;6.30;4.65;;;;;;;27.01;37.88;100700.00;4996066;28;20057;-77
2023/06/25 12:04:17;;;;;;;4.90;3.42;;;;;;;27.11;37.42;100680.94;4996001;28;20440;-77
2023/06/25 12:07:20;;;;;;;7.40;3.83;;;;;;;27.36;38.13;100678.84;4995764;28;20053;-76
2023/06/25 12:10:25;;;;;;;6.95;3.78;;;;;;;27.40;36.78;100682.81;4995657;28;20073;-76
2023/06/25 12:13:28;;;;;;;5.97;3.60;;;;;;;27.49;37.10;100681.72;4995622;28;20532;-76
2023/06/25 12:16:33;;;;;;;6.28;3.50;;;;;;;27.39;36.46;100683.84;4995563;28;20049;-76
2023/06/25 12:19:36;;;;;;;4.40;3.50;;;;;;;27.41;36.88;100689.88;4994854;28;20093;-77
2023/06/25 12:22:39;;;;;;;4.35;3.47;;;;;;;27.45;36.54;100683.09;4994861;28;20089;-76
2023/06/25 12:25:43;;;;;;;5.60;3.72;;;;;;;27.64;35.52;100680.88;4995641;28;20077;-75
2023/06/25 12:28:48;;;;;;;4.75;3.45;;;;;;;27.73;35.20;100672.50;4995267;28;20045;-76
2023/06/25 12:31:51;;;;;;;6.32;3.67;;;;;;;27.69;35.48;100678.44;4995264;28;20101;-78
2023/06/25 12:34:54;;;;;;;5.03;3.65;;;;;;;27.70;35.25;100661.31;4995193;28;20049;-77
2023/06/25 12:37:57;;;;;;;4.22;3.65;;;;;;;27.95;34.97;100659.97;4991662;28;20538;-76
2023/06/25 12:41:01;;;;;;;5.00;3.80;;;;;;;28.00;35.52;100651.31;4995423;28;20411;-78
2023/06/25 12:44:04;;;;;;;5.72;3.40;;;;;;;28.25;34.99;100649.91;4995246;28;20053;-78
2023/06/25 12:47:07;;;;;;;8.07;3.92;;;;;;;28.21;34.87;100640.59;4994934;28;20579;-78
2023/06/25 12:50:11;;;;;;;4.32;3.55;;;;;;;28.28;35.19;100638.78;4995104;28;20100;-78
2023/06/25 12:53:14;;;;;;;5.78;3.40;;;;;;;28.41;35.52;100646.16;4994926;28;20057;-78
2023/06/25 12:56:19;;;;;;;4.53;3.50;;;;;;;28.47;33.66;100645.38;4994834;28;20053;-78
2023/06/25 12:59:22;;;;;;;5.13;3.53;;;;;;;28.47;33.39;100645.38;4994706;28;20105;-80
2023/06/25 13:02:25;;;;;;;4.13;3.40;;;;;;;28.72;33.43;100639.59;4994262;28;20093;-78
2023/06/25 13:05:28;;;;;;;4.70;3.90;;;;;;;28.72;33.64;100624.25;4994836;28;20161;-77
2023/06/25 13:08:32;;;;;;;5.40;3.67;;;;;;;29.05;33.70;100633.59;4994777;28;20065;-78
2023/06/25 13:11:39;;;;;;;3.90;3.50;;;;;;;29.14;32.36;100629.72;4994752;28;20045;-78
2023/06/25 13:15:01;;;;;;;4.47;3.60;;;;;;;29.14;32.60;100618.94;4989527;28;20089;-77
2023/06/25 13:18:08;;;;;;;4.70;3.60;;;;;;;29.33;31.86;100615.50;4994791;28;20479;-78
2023/06/25 13:21:12;;;;;;;4.45;3.72;;;;;;;29.69;31.39;100613.59;4994429;28;20045;-77
2023/06/25 13:24:18;;;;;;;4.13;3.15;;;;;;;29.52;30.94;100615.78;4994702;28;20058;-78
2023/06/25 13:27:22;;;;;;;5.25;3.92;;;;;;;29.75;31.02;100613.59;4994509;28;20136;-78
2023/06/25 13:30:26;;;;;;;4.68;3.42;;;;;;;30.02;31.71;100611.78;4994006;28;20084;-78
2023/06/25 13:33:29;;;;;;;4.38;3.40;;;;;;;30.33;31.59;100600.41;4994498;28;20046;-78
2023/06/25 13:36:32;;;;;;;4.55;3.65;;;;;;;30.43;31.28;100601.88;4994260;28;20114;-78
2023/06/25 13:39:37;;;;;;;5.85;3.92;;;;;;;30.65;31.80;100605.16;4994542;28;20436;-78
2023/06/25 13:42:41;;;;;;;3.97;3.58;;;;;;;30.75;30.07;100598.28;4994218;28;20044;-79
2023/06/25 13:45:46;;;;;;;4.10;3.70;;;;;;;30.88;30.22;100599.31;4993888;28;20052;-79
2023/06/25 13:48:49;;;;;;;6.80;4.10;;;;;;;30.97;29.82;100595.34;4993994;28;20053;-78
2023/06/25 13:51:52;;;;;;;5.13;3.88;;;;;;;31.03;29.01;100589.94;4993897;28;20105;-78
2023/06/25 13:54:55;;;;;;;4.20;3.53;;;;;;;31.19;29.86;100580.53;4990270;28;20129;-78
2023/06/25 13:57:59;;;;;;;5.03;3.65;;;;;;;31.47;29.38;100582.91;4993863;28;20073;-78
2023/06/25 14:01:06;;;;;;;4.65;3.20;;;;;;;31.76;28.93;100579.84;4994085;28;20100;-78
2023/06/25 14:04:11;;;;;;;3.60;3.30;;;;;;;31.94;28.30;100575.38;4993747;28;20573;-79
2023/06/25 14:07:17;;;;;;;4.38;3.40;;;;;;;32.23;28.20;100578.47;4993759;28;20077;-79
2023/06/25 14:10:21;;;;;;;3.75;3.35;;;;;;;32.64;28.14;100572.50;4993551;28;20041;-79
2023/06/25 14:13:26;;;;;;;4.15;3.70;;;;;;;32.86;26.80;100562.00;4993530;28;20073;-84
2023/06/25 14:16:32;;;;;;;4.43;3.53;;;;;;;32.90;27.51;100562.41;4993320;28;20088;-84
2023/06/25 14:19:39;;;;;;;4.10;3.40;;;;;;;33.10;26.02;100559.47;4993323;28;20065;-79
2023/06/25 14:22:49;;;;;;;4.18;3.25;;;;;;;32.42;25.89;100557.69;4993394;28;20053;-83
2023/06/25 14:25:58;;;;;;;4.28;3.65;;;;;;;33.60;25.76;100555.69;4993264;28;20524;-83
2023/06/25 14:29:02;;;;;;;4.25;3.45;;;;;;;37.29;22.39;100545.22;4993016;28;20097;-83
2023/06/25 14:32:07;;;;;;;10.43;3.55;;;;;;;39.90;18.75;100531.06;4992340;28;20120;-82